sensor_id;sensor_type;location;lat;lon;timestamp;temperature;humidity
75022;SHT31;63583;49.976;20.182;2022-12-18T00:00:41;-4.46;89.82
75022;SHT31;63583;49.976;20.182;2022-12-18T00:03:27;-4.47;90.26
75022;SHT31;63583;49.976;20.182;2022-12-18T00:05:52;-4.47;90.06
75022;SHT31;63583;49.976;20.182;2022-12-18T00:08:19;-4.45;90.06
75022;SHT31;63583;49.976;20.182;2022-12-18T00:10:45;-4.58;90.68
75022;SHT31;63583;49.976;20.182;2022-12-18T00:13:12;-4.52;90.46
75022;SHT31;63583;49.976;20.182;2022-12-18T00:15:38;-4.47;89.95
75022;SHT31;63583;49.976;20.182;2022-12-18T00:18:05;-4.52;89.99
75022;SHT31;63583;49.976;20.182;2022-12-18T00:20:32;-4.52;90.07
75022;SHT31;63583;49.976;20.182;2022-12-18T00:23:00;-4.37;89.53
75022;SHT31;63583;49.976;20.182;2022-12-18T00:25:26;-4.46;89.48
75022;SHT31;63583;49.976;20.182;2022-12-18T00:27:52;-4.34;89.11
75022;SHT31;63583;49.976;20.182;2022-12-18T00:30:18;-4.45;89.43
75022;SHT31;63583;49.976;20.182;2022-12-18T00:32:44;-4.54;90.02
75022;SHT31;63583;49.976;20.182;2022-12-18T00:35:09;-4.64;90.43
75022;SHT31;63583;49.976;20.182;2022-12-18T00:37:35;-4.64;90.61
75022;SHT31;63583;49.976;20.182;2022-12-18T00:40:02;-4.56;90.26
75022;SHT31;63583;49.976;20.182;2022-12-18T00:42:28;-4.57;90.28
75022;SHT31;63583;49.976;20.182;2022-12-18T00:45:12;-4.56;90.10
75022;SHT31;63583;49.976;20.182;2022-12-18T00:47:39;-4.50;90.09
75022;SHT31;63583;49.976;20.182;2022-12-18T00:50:05;-4.54;90.05
75022;SHT31;63583;49.976;20.182;2022-12-18T00:52:31;-4.53;89.89
75022;SHT31;63583;49.976;20.182;2022-12-18T00:54:56;-4.58;90.47
75022;SHT31;63583;49.976;20.182;2022-12-18T00:57:22;-4.47;90.17
75022;SHT31;63583;49.976;20.182;2022-12-18T00:59:48;-4.56;90.21
75022;SHT31;63583;49.976;20.182;2022-12-18T01:02:14;-4.63;90.54
75022;SHT31;63583;49.976;20.182;2022-12-18T01:04:39;-4.58;90.10
75022;SHT31;63583;49.976;20.182;2022-12-18T01:07:06;-4.49;89.55
75022;SHT31;63583;49.976;20.182;2022-12-18T01:09:31;-4.46;89.40
75022;SHT31;63583;49.976;20.182;2022-12-18T01:11:57;-4.53;89.72
75022;SHT31;63583;49.976;20.182;2022-12-18T01:14:23;-4.54;89.94
75022;SHT31;63583;49.976;20.182;2022-12-18T01:16:49;-4.58;90.11
75022;SHT31;63583;49.976;20.182;2022-12-18T01:19:14;-4.58;89.92
75022;SHT31;63583;49.976;20.182;2022-12-18T01:21:40;-4.54;90.09
75022;SHT31;63583;49.976;20.182;2022-12-18T01:24:06;-4.53;89.70
75022;SHT31;63583;49.976;20.182;2022-12-18T01:26:32;-4.54;89.80
75022;SHT31;63583;49.976;20.182;2022-12-18T01:28:58;-4.60;90.01
75022;SHT31;63583;49.976;20.182;2022-12-18T01:31:27;-4.61;90.16
75022;SHT31;63583;49.976;20.182;2022-12-18T01:33:53;-4.60;90.29
75022;SHT31;63583;49.976;20.182;2022-12-18T01:36:34;-4.57;90.47
75022;SHT31;63583;49.976;20.182;2022-12-18T01:39:02;-4.47;89.97
75022;SHT31;63583;49.976;20.182;2022-12-18T01:41:30;-4.49;89.79
75022;SHT31;63583;49.976;20.182;2022-12-18T01:47:47;-4.66;90.63
75022;SHT31;63583;49.976;20.182;2022-12-18T01:50:23;-4.57;90.26
75022;SHT31;63583;49.976;20.182;2022-12-18T01:53:11;-4.56;89.82
75022;SHT31;63583;49.976;20.182;2022-12-18T01:55:53;-4.58;89.73
75022;SHT31;63583;49.976;20.182;2022-12-18T01:58:29;-4.56;89.68
75022;SHT31;63583;49.976;20.182;2022-12-18T02:00:55;-4.37;88.97
75022;SHT31;63583;49.976;20.182;2022-12-18T02:03:22;-4.50;89.20
75022;SHT31;63583;49.976;20.182;2022-12-18T02:08:46;-4.60;90.03
75022;SHT31;63583;49.976;20.182;2022-12-18T02:22:37;-4.66;89.96
75022;SHT31;63583;49.976;20.182;2022-12-18T02:25:29;-4.64;90.16
75022;SHT31;63583;49.976;20.182;2022-12-18T02:27:59;-4.54;89.64
75022;SHT31;63583;49.976;20.182;2022-12-18T02:30:27;-4.45;89.49
75022;SHT31;63583;49.976;20.182;2022-12-18T02:32:55;-4.47;89.06
75022;SHT31;63583;49.976;20.182;2022-12-18T02:35:25;-4.49;89.67
75022;SHT31;63583;49.976;20.182;2022-12-18T02:37:52;-4.30;88.31
75022;SHT31;63583;49.976;20.182;2022-12-18T02:40:19;-4.42;88.85
75022;SHT31;63583;49.976;20.182;2022-12-18T02:42:46;-4.54;89.32
75022;SHT31;63583;49.976;20.182;2022-12-18T02:45:12;-4.46;89.45
75022;SHT31;63583;49.976;20.182;2022-12-18T02:47:39;-4.49;89.12
75022;SHT31;63583;49.976;20.182;2022-12-18T02:55:56;-4.54;88.51
75022;SHT31;63583;49.976;20.182;2022-12-18T02:58:47;-4.60;89.22
75022;SHT31;63583;49.976;20.182;2022-12-18T03:01:34;-4.63;89.72
75022;SHT31;63583;49.976;20.182;2022-12-18T03:04:28;-4.61;89.23
75022;SHT31;63583;49.976;20.182;2022-12-18T03:06:59;-4.58;89.37
75022;SHT31;63583;49.976;20.182;2022-12-18T03:09:31;-4.56;89.75
75022;SHT31;63583;49.976;20.182;2022-12-18T03:12:04;-4.56;89.58
75022;SHT31;63583;49.976;20.182;2022-12-18T03:14:54;-4.50;89.12
75022;SHT31;63583;49.976;20.182;2022-12-18T03:17:23;-4.54;89.13
75022;SHT31;63583;49.976;20.182;2022-12-18T03:19:52;-4.63;89.97
75022;SHT31;63583;49.976;20.182;2022-12-18T03:22:23;-4.58;89.69
75022;SHT31;63583;49.976;20.182;2022-12-18T03:24:51;-4.49;89.30
75022;SHT31;63583;49.976;20.182;2022-12-18T03:27:20;-4.63;89.53
75022;SHT31;63583;49.976;20.182;2022-12-18T03:29:49;-4.56;89.67
75022;SHT31;63583;49.976;20.182;2022-12-18T03:32:33;-4.50;89.55
75022;SHT31;63583;49.976;20.182;2022-12-18T03:35:03;-4.47;88.84
75022;SHT31;63583;49.976;20.182;2022-12-18T03:37:30;-4.47;89.33
75022;SHT31;63583;49.976;20.182;2022-12-18T03:39:57;-4.57;88.90
75022;SHT31;63583;49.976;20.182;2022-12-18T03:45:43;-4.61;89.62
75022;SHT31;63583;49.976;20.182;2022-12-18T03:47:56;-4.56;89.51
75022;SHT31;63583;49.976;20.182;2022-12-18T03:50:33;-4.49;88.78
75022;SHT31;63583;49.976;20.182;2022-12-18T03:53:11;-4.43;88.58
75022;SHT31;63583;49.976;20.182;2022-12-18T03:55:59;-4.43;88.34
75022;SHT31;63583;49.976;20.182;2022-12-18T03:58:27;-4.49;88.34
75022;SHT31;63583;49.976;20.182;2022-12-18T04:00:56;-4.54;88.78
75022;SHT31;63583;49.976;20.182;2022-12-18T04:03:26;-4.58;88.55
75022;SHT31;63583;49.976;20.182;2022-12-18T04:05:54;-4.57;88.85
75022;SHT31;63583;49.976;20.182;2022-12-18T04:08:21;-4.66;89.42
75022;SHT31;63583;49.976;20.182;2022-12-18T04:10:47;-4.61;89.41
75022;SHT31;63583;49.976;20.182;2022-12-18T04:13:22;-4.58;89.15
75022;SHT31;63583;49.976;20.182;2022-12-18T04:15:48;-4.54;89.40
75022;SHT31;63583;49.976;20.182;2022-12-18T04:18:14;-4.56;89.27
75022;SHT31;63583;49.976;20.182;2022-12-18T04:20:39;-4.58;89.63
75022;SHT31;63583;49.976;20.182;2022-12-18T04:23:05;-4.71;90.00
75022;SHT31;63583;49.976;20.182;2022-12-18T04:25:31;-4.63;89.71
75022;SHT31;63583;49.976;20.182;2022-12-18T04:27:57;-4.49;89.65
75022;SHT31;63583;49.976;20.182;2022-12-18T04:30:22;-4.56;89.36
75022;SHT31;63583;49.976;20.182;2022-12-18T04:32:48;-4.54;89.12
75022;SHT31;63583;49.976;20.182;2022-12-18T04:35:14;-4.56;89.03
75022;SHT31;63583;49.976;20.182;2022-12-18T04:37:40;-4.54;88.96
75022;SHT31;63583;49.976;20.182;2022-12-18T04:40:05;-4.54;89.43
75022;SHT31;63583;49.976;20.182;2022-12-18T04:42:31;-4.52;88.92
75022;SHT31;63583;49.976;20.182;2022-12-18T04:44:57;-4.61;89.09
75022;SHT31;63583;49.976;20.182;2022-12-18T04:47:23;-4.53;89.08
75022;SHT31;63583;49.976;20.182;2022-12-18T04:49:48;-4.54;88.69
75022;SHT31;63583;49.976;20.182;2022-12-18T04:52:14;-4.61;88.85
75022;SHT31;63583;49.976;20.182;2022-12-18T04:58:23;-4.56;88.93
75022;SHT31;63583;49.976;20.182;2022-12-18T05:01:06;-4.45;88.15
75022;SHT31;63583;49.976;20.182;2022-12-18T05:03:37;-4.56;88.98
75022;SHT31;63583;49.976;20.182;2022-12-18T05:06:14;-4.52;88.97
75022;SHT31;63583;49.976;20.182;2022-12-18T05:08:46;-4.63;89.23
75022;SHT31;63583;49.976;20.182;2022-12-18T05:11:19;-4.47;88.35
75022;SHT31;63583;49.976;20.182;2022-12-18T05:14:00;-4.56;88.91
75022;SHT31;63583;49.976;20.182;2022-12-18T05:16:37;-4.46;88.59
75022;SHT31;63583;49.976;20.182;2022-12-18T05:19:11;-4.57;88.75
75022;SHT31;63583;49.976;20.182;2022-12-18T05:21:50;-4.63;89.42
75022;SHT31;63583;49.976;20.182;2022-12-18T05:24:38;-4.54;89.06
75022;SHT31;63583;49.976;20.182;2022-12-18T05:27:32;-4.60;89.17
75022;SHT31;63583;49.976;20.182;2022-12-18T05:30:14;-4.52;88.57
75022;SHT31;63583;49.976;20.182;2022-12-18T05:33:06;-4.57;89.34
75022;SHT31;63583;49.976;20.182;2022-12-18T05:36:07;-4.74;89.88
75022;SHT31;63583;49.976;20.182;2022-12-18T05:38:43;-4.68;89.52
75022;SHT31;63583;49.976;20.182;2022-12-18T05:42:03;-4.58;89.12
75022;SHT31;63583;49.976;20.182;2022-12-18T05:44:39;-4.56;89.01
75022;SHT31;63583;49.976;20.182;2022-12-18T05:47:09;-4.58;88.92
75022;SHT31;63583;49.976;20.182;2022-12-18T05:49:34;-4.47;88.72
75022;SHT31;63583;49.976;20.182;2022-12-18T05:52:00;-4.43;88.54
75022;SHT31;63583;49.976;20.182;2022-12-18T05:54:27;-4.42;88.59
75022;SHT31;63583;49.976;20.182;2022-12-18T05:56:53;-4.29;87.59
75022;SHT31;63583;49.976;20.182;2022-12-18T05:59:19;-4.39;87.62
75022;SHT31;63583;49.976;20.182;2022-12-18T06:01:45;-4.46;88.20
75022;SHT31;63583;49.976;20.182;2022-12-18T06:04:11;-4.39;88.14
75022;SHT31;63583;49.976;20.182;2022-12-18T06:06:37;-4.39;87.98
75022;SHT31;63583;49.976;20.182;2022-12-18T06:09:03;-4.36;87.60
75022;SHT31;63583;49.976;20.182;2022-12-18T06:11:35;-4.47;88.02
75022;SHT31;63583;49.976;20.182;2022-12-18T06:14:01;-4.50;88.63
75022;SHT31;63583;49.976;20.182;2022-12-18T06:16:28;-4.54;88.70
75022;SHT31;63583;49.976;20.182;2022-12-18T06:18:57;-4.54;88.53
75022;SHT31;63583;49.976;20.182;2022-12-18T06:21:24;-4.52;88.10
75022;SHT31;63583;49.976;20.182;2022-12-18T06:23:49;-4.58;88.66
75022;SHT31;63583;49.976;20.182;2022-12-18T06:26:15;-4.56;88.30
75022;SHT31;63583;49.976;20.182;2022-12-18T06:28:41;-4.37;87.68
75022;SHT31;63583;49.976;20.182;2022-12-18T06:31:08;-4.40;87.87
75022;SHT31;63583;49.976;20.182;2022-12-18T06:33:34;-4.52;87.80
75022;SHT31;63583;49.976;20.182;2022-12-18T06:36:06;-4.46;87.86
75022;SHT31;63583;49.976;20.182;2022-12-18T06:38:33;-4.39;87.91
75022;SHT31;63583;49.976;20.182;2022-12-18T06:41:00;-4.52;87.76
75022;SHT31;63583;49.976;20.182;2022-12-18T06:43:26;-4.33;87.36
75022;SHT31;63583;49.976;20.182;2022-12-18T06:45:58;-4.30;87.53
75022;SHT31;63583;49.976;20.182;2022-12-18T06:48:24;-4.34;87.10
75022;SHT31;63583;49.976;20.182;2022-12-18T06:50:50;-4.30;87.23
75022;SHT31;63583;49.976;20.182;2022-12-18T06:53:15;-4.34;87.26
75022;SHT31;63583;49.976;20.182;2022-12-18T06:55:41;-4.34;88.01
75022;SHT31;63583;49.976;20.182;2022-12-18T06:58:07;-4.29;87.01
75022;SHT31;63583;49.976;20.182;2022-12-18T07:00:33;-4.33;87.19
75022;SHT31;63583;49.976;20.182;2022-12-18T07:02:58;-4.18;86.29
75022;SHT31;63583;49.976;20.182;2022-12-18T07:05:24;-4.19;86.31
75022;SHT31;63583;49.976;20.182;2022-12-18T07:07:50;-4.34;86.65
75022;SHT31;63583;49.976;20.182;2022-12-18T07:10:16;-4.19;86.23
75022;SHT31;63583;49.976;20.182;2022-12-18T07:12:41;-4.19;85.87
75022;SHT31;63583;49.976;20.182;2022-12-18T07:15:08;-4.15;86.14
75022;SHT31;63583;49.976;20.182;2022-12-18T07:17:33;-4.18;85.97
75022;SHT31;63583;49.976;20.182;2022-12-18T07:19:59;-4.19;86.30
75022;SHT31;63583;49.976;20.182;2022-12-18T07:22:25;-4.12;86.18
75022;SHT31;63583;49.976;20.182;2022-12-18T07:24:51;-4.02;85.98
75022;SHT31;63583;49.976;20.182;2022-12-18T07:27:17;-4.03;85.75
75022;SHT31;63583;49.976;20.182;2022-12-18T07:29:43;-3.99;85.91
75022;SHT31;63583;49.976;20.182;2022-12-18T07:32:08;-4.03;85.69
75022;SHT31;63583;49.976;20.182;2022-12-18T07:34:34;-3.98;85.61
75022;SHT31;63583;49.976;20.182;2022-12-18T07:37:00;-3.97;85.80
75022;SHT31;63583;49.976;20.182;2022-12-18T07:39:26;-3.87;85.38
75022;SHT31;63583;49.976;20.182;2022-12-18T07:41:51;-3.80;84.90
75022;SHT31;63583;49.976;20.182;2022-12-18T07:44:36;-3.81;84.77
75022;SHT31;63583;49.976;20.182;2022-12-18T07:51:00;-3.80;84.69
75022;SHT31;63583;49.976;20.182;2022-12-18T07:53:27;-3.61;83.45
75022;SHT31;63583;49.976;20.182;2022-12-18T07:55:56;-3.68;83.84
75022;SHT31;63583;49.976;20.182;2022-12-18T07:58:23;-3.54;83.53
75022;SHT31;63583;49.976;20.182;2022-12-18T08:00:48;-3.53;83.39
75022;SHT31;63583;49.976;20.182;2022-12-18T08:03:14;-3.61;84.35
75022;SHT31;63583;49.976;20.182;2022-12-18T08:05:40;-3.33;82.56
75022;SHT31;63583;49.976;20.182;2022-12-18T08:08:06;-3.42;83.28
75022;SHT31;63583;49.976;20.182;2022-12-18T08:10:31;-3.38;83.49
75022;SHT31;63583;49.976;20.182;2022-12-18T08:12:57;-3.40;83.07
75022;SHT31;63583;49.976;20.182;2022-12-18T08:15:23;-3.46;83.27
75022;SHT31;63583;49.976;20.182;2022-12-18T08:17:49;-3.32;83.77
75022;SHT31;63583;49.976;20.182;2022-12-18T08:20:15;-3.17;83.40
75022;SHT31;63583;49.976;20.182;2022-12-18T08:22:41;-3.12;82.67
75022;SHT31;63583;49.976;20.182;2022-12-18T08:25:07;-3.08;82.84
75022;SHT31;63583;49.976;20.182;2022-12-18T08:27:33;-3.03;82.27
75022;SHT31;63583;49.976;20.182;2022-12-18T08:29:59;-3.02;82.08
75022;SHT31;63583;49.976;20.182;2022-12-18T08:32:26;-3.01;81.64
75022;SHT31;63583;49.976;20.182;2022-12-18T08:34:52;-2.99;82.37
75022;SHT31;63583;49.976;20.182;2022-12-18T08:37:18;-2.94;82.03
75022;SHT31;63583;49.976;20.182;2022-12-18T08:39:44;-2.87;80.41
75022;SHT31;63583;49.976;20.182;2022-12-18T08:42:10;-2.88;81.57
75022;SHT31;63583;49.976;20.182;2022-12-18T08:44:54;-2.88;80.77
75022;SHT31;63583;49.976;20.182;2022-12-18T08:47:20;-2.91;81.11
75022;SHT31;63583;49.976;20.182;2022-12-18T08:49:45;-2.84;80.83
75022;SHT31;63583;49.976;20.182;2022-12-18T08:52:14;-2.89;81.54
75022;SHT31;63583;49.976;20.182;2022-12-18T08:54:39;-2.89;81.84
75022;SHT31;63583;49.976;20.182;2022-12-18T08:57:05;-2.65;80.89
75022;SHT31;63583;49.976;20.182;2022-12-18T08:59:32;-2.63;80.65
75022;SHT31;63583;49.976;20.182;2022-12-18T09:01:57;-2.68;81.19
75022;SHT31;63583;49.976;20.182;2022-12-18T09:04:23;-2.64;81.25
75022;SHT31;63583;49.976;20.182;2022-12-18T09:06:49;-2.71;82.35
75022;SHT31;63583;49.976;20.182;2022-12-18T09:09:14;-2.50;80.56
75022;SHT31;63583;49.976;20.182;2022-12-18T09:11:40;-2.42;79.58
75022;SHT31;63583;49.976;20.182;2022-12-18T09:14:06;-2.39;80.45
75022;SHT31;63583;49.976;20.182;2022-12-18T09:16:32;-2.26;80.15
75022;SHT31;63583;49.976;20.182;2022-12-18T09:19:01;-2.26;79.98
75022;SHT31;63583;49.976;20.182;2022-12-18T09:21:45;-2.29;79.90
75022;SHT31;63583;49.976;20.182;2022-12-18T09:24:15;-2.37;79.88
75022;SHT31;63583;49.976;20.182;2022-12-18T09:26:41;-2.23;79.42
75022;SHT31;63583;49.976;20.182;2022-12-18T09:29:07;-2.07;79.82
75022;SHT31;63583;49.976;20.182;2022-12-18T09:31:33;-2.02;78.84
75022;SHT31;63583;49.976;20.182;2022-12-18T09:33:59;-2.16;78.81
75022;SHT31;63583;49.976;20.182;2022-12-18T09:36:26;-2.15;78.67
75022;SHT31;63583;49.976;20.182;2022-12-18T09:38:52;-2.07;79.13
75022;SHT31;63583;49.976;20.182;2022-12-18T09:41:33;-2.37;79.40
75022;SHT31;63583;49.976;20.182;2022-12-18T09:44:12;-2.22;78.23
75022;SHT31;63583;49.976;20.182;2022-12-18T09:46:44;-2.29;78.71
75022;SHT31;63583;49.976;20.182;2022-12-18T09:49:16;-2.25;78.54
75022;SHT31;63583;49.976;20.182;2022-12-18T09:51:46;-2.34;78.27
75022;SHT31;63583;49.976;20.182;2022-12-18T09:54:25;-2.34;78.84
75022;SHT31;63583;49.976;20.182;2022-12-18T09:56:51;-2.52;78.50
75022;SHT31;63583;49.976;20.182;2022-12-18T09:59:26;-2.67;80.03
75022;SHT31;63583;49.976;20.182;2022-12-18T10:01:54;-2.67;80.22
75022;SHT31;63583;49.976;20.182;2022-12-18T10:04:20;-2.82;80.33
75022;SHT31;63583;49.976;20.182;2022-12-18T10:07:03;-2.74;80.53
75022;SHT31;63583;49.976;20.182;2022-12-18T10:09:37;-2.70;80.01
75022;SHT31;63583;49.976;20.182;2022-12-18T10:19:56;-2.70;80.37
75022;SHT31;63583;49.976;20.182;2022-12-18T10:22:28;-2.49;79.93
75022;SHT31;63583;49.976;20.182;2022-12-18T10:25:28;-2.42;79.44
75022;SHT31;63583;49.976;20.182;2022-12-18T10:28:06;-2.42;79.06
75022;SHT31;63583;49.976;20.182;2022-12-18T10:30:33;-2.52;79.33
75022;SHT31;63583;49.976;20.182;2022-12-18T10:33:02;-2.46;79.90
75022;SHT31;63583;49.976;20.182;2022-12-18T10:35:28;-2.43;79.29
75022;SHT31;63583;49.976;20.182;2022-12-18T10:40:29;-2.36;78.96
75022;SHT31;63583;49.976;20.182;2022-12-18T10:43:14;-2.37;78.74
75022;SHT31;63583;49.976;20.182;2022-12-18T10:45:41;-2.47;79.26
75022;SHT31;63583;49.976;20.182;2022-12-18T10:48:21;-2.40;78.62
75022;SHT31;63583;49.976;20.182;2022-12-18T10:50:49;-2.52;78.37
75022;SHT31;63583;49.976;20.182;2022-12-18T10:53:36;-2.52;79.03
75022;SHT31;63583;49.976;20.182;2022-12-18T10:56:04;-2.65;79.03
75022;SHT31;63583;49.976;20.182;2022-12-18T10:58:35;-2.64;79.18
75022;SHT31;63583;49.976;20.182;2022-12-18T11:01:17;-2.65;79.32
75022;SHT31;63583;49.976;20.182;2022-12-18T11:06:23;-2.77;79.09
75022;SHT31;63583;49.976;20.182;2022-12-18T11:11:28;-2.78;79.32
75022;SHT31;63583;49.976;20.182;2022-12-18T11:14:04;-2.84;79.41
75022;SHT31;63583;49.976;20.182;2022-12-18T11:16:43;-2.78;79.25
75022;SHT31;63583;49.976;20.182;2022-12-18T11:19:30;-2.81;79.85
75022;SHT31;63583;49.976;20.182;2022-12-18T11:21:57;-2.80;79.46
75022;SHT31;63583;49.976;20.182;2022-12-18T11:24:30;-2.78;79.21
75022;SHT31;63583;49.976;20.182;2022-12-18T11:27:04;-2.91;79.48
75022;SHT31;63583;49.976;20.182;2022-12-18T11:29:37;-2.89;79.82
75022;SHT31;63583;49.976;20.182;2022-12-18T11:34:50;-2.82;79.05
75022;SHT31;63583;49.976;20.182;2022-12-18T11:37:18;-2.70;78.58
75022;SHT31;63583;49.976;20.182;2022-12-18T11:39:52;-2.80;78.74
75022;SHT31;63583;49.976;20.182;2022-12-18T11:48:01;-2.85;78.63
75022;SHT31;63583;49.976;20.182;2022-12-18T11:50:38;-2.84;78.16
75022;SHT31;63583;49.976;20.182;2022-12-18T11:53:12;-2.80;77.41
75022;SHT31;63583;49.976;20.182;2022-12-18T11:55:54;-2.82;77.73
75022;SHT31;63583;49.976;20.182;2022-12-18T11:58:46;-2.82;78.23
75022;SHT31;63583;49.976;20.182;2022-12-18T12:04:27;-3.30;78.90
75022;SHT31;63583;49.976;20.182;2022-12-18T12:13:00;-3.50;81.97
75022;SHT31;63583;49.976;20.182;2022-12-18T12:27:22;-3.57;81.73
75022;SHT31;63583;49.976;20.182;2022-12-18T12:35:22;-3.68;81.78
75022;SHT31;63583;49.976;20.182;2022-12-18T12:37:58;-3.56;81.58
75022;SHT31;63583;49.976;20.182;2022-12-18T12:40:28;-3.70;81.11
75022;SHT31;63583;49.976;20.182;2022-12-18T12:43:03;-3.88;81.66
75022;SHT31;63583;49.976;20.182;2022-12-18T12:45:58;-3.94;82.05
75022;SHT31;63583;49.976;20.182;2022-12-18T12:48:40;-3.92;82.23
75022;SHT31;63583;49.976;20.182;2022-12-18T12:51:16;-3.92;82.41
75022;SHT31;63583;49.976;20.182;2022-12-18T12:53:43;-3.89;82.41
75022;SHT31;63583;49.976;20.182;2022-12-18T12:56:12;-4.02;82.70
75022;SHT31;63583;49.976;20.182;2022-12-18T12:59:02;-4.01;82.78
75022;SHT31;63583;49.976;20.182;2022-12-18T13:01:39;-4.18;83.13
75022;SHT31;63583;49.976;20.182;2022-12-18T13:04:49;-4.05;84.09
75022;SHT31;63583;49.976;20.182;2022-12-18T13:07:23;-4.10;83.30
75022;SHT31;63583;49.976;20.182;2022-12-18T13:13:09;-4.15;83.21
75022;SHT31;63583;49.976;20.182;2022-12-18T13:15:48;-4.12;83.24
75022;SHT31;63583;49.976;20.182;2022-12-18T13:18:17;-4.18;82.83
75022;SHT31;63583;49.976;20.182;2022-12-18T13:21:01;-4.28;83.43
75022;SHT31;63583;49.976;20.182;2022-12-18T13:23:33;-4.32;83.45
75022;SHT31;63583;49.976;20.182;2022-12-18T13:26:45;-4.47;84.23
75022;SHT31;63583;49.976;20.182;2022-12-18T13:33:43;-4.47;84.79
75022;SHT31;63583;49.976;20.182;2022-12-18T13:36:39;-4.68;86.52
75022;SHT31;63583;49.976;20.182;2022-12-18T13:41:43;-4.81;87.01
75022;SHT31;63583;49.976;20.182;2022-12-18T13:46:47;-4.88;87.15
75022;SHT31;63583;49.976;20.182;2022-12-18T13:51:44;-5.04;87.20
75022;SHT31;63583;49.976;20.182;2022-12-18T13:56:53;-5.15;88.33
75022;SHT31;63583;49.976;20.182;2022-12-18T13:59:24;-5.20;87.77
75022;SHT31;63583;49.976;20.182;2022-12-18T14:01:54;-5.29;87.80
75022;SHT31;63583;49.976;20.182;2022-12-18T14:04:31;-5.42;88.29
75022;SHT31;63583;49.976;20.182;2022-12-18T14:07:02;-5.50;88.66
75022;SHT31;63583;49.976;20.182;2022-12-18T14:09:31;-5.57;89.18
75022;SHT31;63583;49.976;20.182;2022-12-18T14:12:00;-5.64;89.11
75022;SHT31;63583;49.976;20.182;2022-12-18T14:14:49;-5.80;89.61
75022;SHT31;63583;49.976;20.182;2022-12-18T14:17:16;-5.81;90.30
75022;SHT31;63583;49.976;20.182;2022-12-18T14:19:48;-5.83;92.32
75022;SHT31;63583;49.976;20.182;2022-12-18T14:22:20;-5.90;90.83
75022;SHT31;63583;49.976;20.182;2022-12-18T14:24:47;-5.97;90.61
75022;SHT31;63583;49.976;20.182;2022-12-18T14:27:22;-5.97;90.86
75022;SHT31;63583;49.976;20.182;2022-12-18T14:29:48;-6.05;90.59
75022;SHT31;63583;49.976;20.182;2022-12-18T14:32:19;-6.12;90.76
75022;SHT31;63583;49.976;20.182;2022-12-18T14:34:47;-6.12;91.73
75022;SHT31;63583;49.976;20.182;2022-12-18T14:37:16;-6.22;91.37
75022;SHT31;63583;49.976;20.182;2022-12-18T14:39:58;-6.30;91.25
75022;SHT31;63583;49.976;20.182;2022-12-18T14:42:26;-6.36;91.67
75022;SHT31;63583;49.976;20.182;2022-12-18T14:47:58;-6.50;92.07
75022;SHT31;63583;49.976;20.182;2022-12-18T14:50:24;-6.54;92.42
75022;SHT31;63583;49.976;20.182;2022-12-18T14:52:50;-6.60;92.57
75022;SHT31;63583;49.976;20.182;2022-12-18T14:55:17;-6.64;92.61
75022;SHT31;63583;49.976;20.182;2022-12-18T14:57:44;-6.66;92.93
75022;SHT31;63583;49.976;20.182;2022-12-18T15:00:18;-6.70;93.40
75022;SHT31;63583;49.976;20.182;2022-12-18T15:02:46;-6.74;93.28
75022;SHT31;63583;49.976;20.182;2022-12-18T15:07:44;-6.84;93.60
75022;SHT31;63583;49.976;20.182;2022-12-18T15:10:13;-6.87;93.89
75022;SHT31;63583;49.976;20.182;2022-12-18T15:20:54;-6.64;93.21
75022;SHT31;63583;49.976;20.182;2022-12-18T15:25:59;-6.61;93.32
75022;SHT31;63583;49.976;20.182;2022-12-18T15:28:31;-6.74;93.62
75022;SHT31;63583;49.976;20.182;2022-12-18T15:33:35;-6.42;92.59
75022;SHT31;63583;49.976;20.182;2022-12-18T15:36:08;-6.51;93.22
75022;SHT31;63583;49.976;20.182;2022-12-18T15:38:34;-6.46;94.23
75022;SHT31;63583;49.976;20.182;2022-12-18T15:41:00;-6.40;94.07
75022;SHT31;63583;49.976;20.182;2022-12-18T15:43:26;-6.49;93.91
75022;SHT31;63583;49.976;20.182;2022-12-18T15:46:09;-6.53;94.08
75022;SHT31;63583;49.976;20.182;2022-12-18T15:48:50;-6.53;93.94
75022;SHT31;63583;49.976;20.182;2022-12-18T15:51:31;-6.53;93.69
75022;SHT31;63583;49.976;20.182;2022-12-18T15:54:03;-6.53;93.75
75022;SHT31;63583;49.976;20.182;2022-12-18T15:56:30;-6.60;94.03
75022;SHT31;63583;49.976;20.182;2022-12-18T15:59:17;-6.63;94.46
75022;SHT31;63583;49.976;20.182;2022-12-18T16:01:45;-6.63;95.00
75022;SHT31;63583;49.976;20.182;2022-12-18T16:04:13;-6.67;94.99
75022;SHT31;63583;49.976;20.182;2022-12-18T16:06:41;-6.77;93.61
75022;SHT31;63583;49.976;20.182;2022-12-18T16:09:07;-6.74;93.74
75022;SHT31;63583;49.976;20.182;2022-12-18T16:11:36;-6.85;93.45
75022;SHT31;63583;49.976;20.182;2022-12-18T16:14:22;-6.83;93.55
75022;SHT31;63583;49.976;20.182;2022-12-18T16:16:56;-6.74;94.06
75022;SHT31;63583;49.976;20.182;2022-12-18T16:19:23;-6.81;93.00
75022;SHT31;63583;49.976;20.182;2022-12-18T16:21:51;-6.85;93.42
75022;SHT31;63583;49.976;20.182;2022-12-18T16:24:20;-6.92;93.09
75022;SHT31;63583;49.976;20.182;2022-12-18T16:26:47;-6.84;93.45
75022;SHT31;63583;49.976;20.182;2022-12-18T16:29:13;-6.91;93.01
75022;SHT31;63583;49.976;20.182;2022-12-18T16:31:39;-6.92;92.91
75022;SHT31;63583;49.976;20.182;2022-12-18T16:34:22;-6.80;92.43
75022;SHT31;63583;49.976;20.182;2022-12-18T16:36:51;-6.90;92.22
75022;SHT31;63583;49.976;20.182;2022-12-18T16:39:46;-6.99;92.46
75022;SHT31;63583;49.976;20.182;2022-12-18T16:42:29;-7.04;93.06
75022;SHT31;63583;49.976;20.182;2022-12-18T16:45:33;-7.04;92.69
75022;SHT31;63583;49.976;20.182;2022-12-18T16:48:10;-6.99;92.77
75022;SHT31;63583;49.976;20.182;2022-12-18T16:51:01;-6.98;92.55
75022;SHT31;63583;49.976;20.182;2022-12-18T16:57:37;-6.91;92.57
75022;SHT31;63583;49.976;20.182;2022-12-18T17:00:22;-6.94;92.70
75022;SHT31;63583;49.976;20.182;2022-12-18T17:02:48;-6.90;92.85
75022;SHT31;63583;49.976;20.182;2022-12-18T17:05:14;-6.77;92.29
75022;SHT31;63583;49.976;20.182;2022-12-18T17:07:40;-6.94;93.08
75022;SHT31;63583;49.976;20.182;2022-12-18T17:10:06;-6.87;93.58
75022;SHT31;63583;49.976;20.182;2022-12-18T17:12:32;-6.87;93.26
75022;SHT31;63583;49.976;20.182;2022-12-18T17:14:58;-6.77;92.94
75022;SHT31;63583;49.976;20.182;2022-12-18T17:17:24;-6.67;92.66
75022;SHT31;63583;49.976;20.182;2022-12-18T17:19:51;-6.71;92.81
75022;SHT31;63583;49.976;20.182;2022-12-18T17:22:16;-6.70;93.76
75022;SHT31;63583;49.976;20.182;2022-12-18T17:24:42;-6.66;93.16
75022;SHT31;63583;49.976;20.182;2022-12-18T17:27:08;-6.54;93.49
75022;SHT31;63583;49.976;20.182;2022-12-18T17:29:34;-6.51;92.83
75022;SHT31;63583;49.976;20.182;2022-12-18T17:32:00;-6.54;92.43
75022;SHT31;63583;49.976;20.182;2022-12-18T17:34:27;-6.53;93.08
75022;SHT31;63583;49.976;20.182;2022-12-18T17:36:53;-6.60;92.39
75022;SHT31;63583;49.976;20.182;2022-12-18T17:39:19;-6.66;93.08
75022;SHT31;63583;49.976;20.182;2022-12-18T17:41:46;-6.67;93.49
75022;SHT31;63583;49.976;20.182;2022-12-18T17:44:12;-6.69;92.69